Time;durP1;ratioP1;P1;durP2;ratioP2;P2;SDS_P1;SDS_P2;PMS_P1;PMS_P2;Temp;Humidity;BMP_temperature;BMP_pressure;BME280_temperature;BME280_humidity;BME280_pressure;Samples;Min_cycle;Max_cycle;Signal;HPM_P1;HPM_P2
2022/04/22 00:00:08;;;;;;;8.30;3.50;;;14.30;84.20;;;;;;5055616;28;20071;-80
2022/04/22 00:02:34;;;;;;;13.15;4.50;;;14.30;84.30;;;;;;5027610;28;20025;-77
2022/04/22 00:05:01;;;;;;;9.25;3.70;;;14.30;84.70;;;;;;5055004;28;20474;-79
2022/04/22 00:07:30;;;;;;;6.22;4.03;;;14.30;84.80;;;;;;5055416;28;20079;-80
2022/04/22 00:09:56;;;;;;;9.57;4.32;;;13.90;86.10;;;;;;5055299;28;20040;-80
2022/04/22 00:12:22;;;;;;;12.48;4.35;;;13.90;87.70;;;;;;5055492;28;20032;-80
2022/04/22 00:14:48;;;;;;;14.88;4.65;;;13.90;87.90;;;;;;5055109;28;20389;-81
2022/04/22 00:17:14;;;;;;;10.98;4.35;;;14.00;88.60;;;;;;5055143;28;20039;-79
2022/04/22 00:19:39;;;;;;;8.43;4.47;;;13.70;90.10;;;;;;5054910;28;20384;-78
2022/04/22 00:22:06;;;;;;;10.30;4.63;;;13.80;90.20;;;;;;5037669;28;20029;-79
2022/04/22 00:24:31;;;;;;;15.60;4.95;;;13.90;90.10;;;;;;5055062;28;20104;-74
2022/04/22 00:26:57;;;;;;;12.57;5.07;;;13.80;90.10;;;;;;5055152;28;20036;-76
2022/04/22 00:29:23;;;;;;;10.80;4.18;;;13.90;90.50;;;;;;5020669;28;20460;-76
2022/04/22 00:31:49;;;;;;;7.78;4.53;;;13.80;90.80;;;;;;5055094;28;20100;-79
2022/04/22 00:34:15;;;;;;;10.13;4.72;;;13.70;91.10;;;;;;5054758;28;20473;-78
2022/04/22 00:36:41;;;;;;;9.85;4.93;;;13.80;91.10;;;;;;5055036;28;20029;-82
2022/04/22 00:39:06;;;;;;;9.85;4.70;;;13.90;91.10;;;;;;5037152;28;20068;-73
2022/04/22 00:41:32;;;;;;;14.75;5.90;;;13.90;91.20;;;;;;5037139;28;20024;-82
2022/04/22 00:43:58;;;;;;;10.65;5.53;;;13.80;91.60;;;;;;5055194;28;20028;-83
2022/04/22 00:46:24;;;;;;;11.60;5.28;;;13.80;91.70;;;;;;5054570;28;20021;-83
2022/04/22 00:48:50;;;;;;;9.52;5.47;;;13.80;92.00;;;;;;5055070;28;20108;-81
2022/04/22 00:51:18;;;;;;;13.45;5.57;;;13.70;92.70;;;;;;5065734;28;20484;-82
2022/04/22 00:53:49;;;;;;;10.45;5.50;;;13.80;93.00;;;;;;5074883;28;20037;-81
2022/04/22 00:56:15;;;;;;;12.88;6.03;;;13.60;93.60;;;;;;5047837;28;20428;-84
2022/04/22 00:58:44;;;;;;;9.00;5.75;;;13.50;94.50;;;;;;5055296;28;20037;-85
2022/04/22 01:01:11;;;;;;;14.57;5.88;;;13.50;95.00;;;;;;5036448;28;20057;-84
2022/04/22 01:03:38;;;;;;;13.05;6.00;;;13.40;95.50;;;;;;5054839;28;20087;-85
2022/04/22 01:11:37;;;;;;;19.05;6.45;;;13.20;97.90;;;;;;5054241;28;20358;-84
2022/04/22 01:14:06;;;;;;;10.05;6.25;;;13.10;98.50;;;;;;5054479;28;20090;-84
2022/04/22 01:16:33;;;;;;;14.07;6.70;;;13.20;98.50;;;;;;5054313;28;20067;-84
2022/04/22 01:18:59;;;;;;;10.98;6.90;;;13.30;98.40;;;;;;5036226;28;20104;-83
2022/04/22 01:21:25;;;;;;;9.43;5.97;;;13.20;98.70;;;;;;5053983;28;20025;-84
2022/04/22 01:23:51;;;;;;;11.80;6.18;;;13.30;98.80;;;;;;5053838;28;20036;-84
2022/04/22 01:26:17;;;;;;;12.82;6.97;;;13.20;99.20;;;;;;5053857;28;20032;-82
2022/04/22 01:28:43;;;;;;;16.95;6.90;;;13.10;99.60;;;;;;5019578;28;20025;-84
2022/04/22 01:31:09;;;;;;;14.73;7.28;;;13.00;99.90;;;;;;5036061;28;20599;-81
2022/04/22 01:33:35;;;;;;;12.60;6.72;;;12.80;99.90;;;;;;5053462;28;20028;-83
2022/04/22 01:36:01;;;;;;;15.07;7.72;;;12.70;99.90;;;;;;5053873;28;20058;-84
2022/04/22 01:38:27;;;;;;;13.18;7.55;;;12.80;99.90;;;;;;5053586;28;20025;-84
2022/04/22 01:40:54;;;;;;;10.80;6.88;;;12.90;99.90;;;;;;5053717;28;20025;-83
2022/04/22 01:43:21;;;;;;;15.05;7.90;;;13.00;99.90;;;;;;5053420;28;20158;-83
2022/04/22 01:45:46;;;;;;;14.43;7.60;;;13.10;99.90;;;;;;5035797;28;20040;-84
2022/04/22 01:48:12;;;;;;;12.23;7.28;;;13.10;99.90;;;;;;5052972;28;20025;-83
2022/04/22 01:50:38;;;;;;;14.35;7.65;;;12.80;99.90;;;;;;5053287;28;20029;-83
2022/04/22 01:53:06;;;;;;;17.50;8.30;;;12.90;99.90;;;;;;5053172;28;20029;-83
2022/04/22 01:55:33;;;;;;;16.23;7.68;;;12.60;99.90;;;;;;5053395;28;20029;-84
2022/04/22 01:57:59;;;;;;;14.70;8.93;;;12.50;99.90;;;;;;5053279;28;20067;-83
2022/04/22 02:00:25;;;;;;;11.15;7.82;;;12.60;99.90;;;;;;5053338;28;20428;-83
2022/04/22 02:02:53;;;;;;;13.77;8.73;;;12.70;99.90;;;;;;5053047;28;20025;-82
2022/04/22 02:05:19;;;;;;;15.73;7.60;;;12.80;99.90;;;;;;5053026;28;20033;-84
2022/04/22 02:07:46;;;;;;;13.30;8.50;;;12.50;99.90;;;;;;5052952;28;20009;-82
2022/04/22 02:10:11;;;;;;;15.40;8.60;;;12.20;99.90;;;;;;5053375;28;20474;-84
2022/04/22 02:12:37;;;;;;;13.90;8.75;;;12.10;99.90;;;;;;5052850;28;20105;-83
2022/04/22 02:15:04;;;;;;;16.25;8.98;;;12.20;99.90;;;;;;5052812;28;20424;-83
2022/04/22 02:17:29;;;;;;;16.67;9.68;;;12.30;99.90;;;;;;5052063;28;20037;-83
2022/04/22 02:19:56;;;;;;;25.67;11.57;;;12.20;99.90;;;;;;5052841;28;20082;-84
2022/04/22 02:22:22;;;;;;;20.50;11.32;;;12.10;99.90;;;;;;5052905;28;20021;-83
2022/04/22 02:24:49;;;;;;;17.88;11.77;;;12.10;99.90;;;;;;5052927;28;20056;-83
2022/04/22 02:29:59;;;;;;;22.63;11.98;;;12.00;99.90;;;;;;5054005;28;20478;-83
2022/04/22 02:32:24;;;;;;;18.70;11.15;;;12.10;99.90;;;;;;5035671;28;20025;-82
2022/04/22 02:34:50;;;;;;;24.77;11.85;;;12.20;99.90;;;;;;5052596;28;20385;-82
2022/04/22 02:37:16;;;;;;;25.20;12.68;;;12.20;99.90;;;;;;5052665;28;20021;-83
2022/04/22 02:39:42;;;;;;;29.17;12.52;;;12.10;99.90;;;;;;5052849;28;20037;-83
2022/04/22 02:47:37;;;;;;;19.80;11.60;;;12.30;99.90;;;;;;5052225;28;20485;-84
2022/04/22 02:50:03;;;;;;;15.68;10.65;;;12.20;99.90;;;;;;5052627;28;20166;-83
2022/04/22 02:52:28;;;;;;;14.70;9.60;;;12.10;99.90;;;;;;5051009;28;20036;-82
2022/04/22 02:54:54;;;;;;;18.90;10.55;;;12.00;99.90;;;;;;5052561;28;20040;-83
2022/04/22 02:57:20;;;;;;;13.80;10.15;;;11.90;99.90;;;;;;5052584;28;20440;-83
2022/04/22 02:59:46;;;;;;;18.95;11.20;;;12.00;99.90;;;;;;5034370;28;20477;-83
2022/04/22 03:02:12;;;;;;;17.30;10.35;;;12.00;99.90;;;;;;5052570;28;20376;-84
2022/04/22 03:04:38;;;;;;;16.27;10.45;;;12.00;99.90;;;;;;5052163;28;20021;-83
2022/04/22 03:07:04;;;;;;;15.48;10.55;;;11.70;99.90;;;;;;5052578;28;20036;-83
2022/04/22 03:09:30;;;;;;;17.40;9.93;;;11.80;99.90;;;;;;5052553;28;20362;-83
2022/04/22 03:11:56;;;;;;;20.52;10.23;;;11.90;99.90;;;;;;5052344;28;20025;-83
2022/04/22 03:14:21;;;;;;;20.20;10.98;;;11.80;99.90;;;;;;5051945;28;20069;-83
2022/04/22 03:16:47;;;;;;;15.40;10.90;;;11.70;99.90;;;;;;5052370;28;20036;-83
2022/04/22 03:19:13;;;;;;;20.50;11.20;;;11.70;99.90;;;;;;5052305;28;20059;-83
2022/04/22 03:21:39;;;;;;;17.20;10.15;;;11.70;99.90;;;;;;5034690;28;20551;-83
2022/04/22 03:24:04;;;;;;;17.27;11.45;;;11.80;99.90;;;;;;5052286;28;20133;-82
2022/04/22 03:26:30;;;;;;;17.15;10.85;;;11.80;99.90;;;;;;5052318;28;20025;-83
2022/04/22 03:28:57;;;;;;;18.25;10.77;;;11.80;99.90;;;;;;5052835;28;20029;-84
2022/04/22 03:31:23;;;;;;;18.88;11.02;;;11.80;99.90;;;;;;5056060;28;20112;-83
2022/04/22 03:33:49;;;;;;;17.98;10.50;;;11.70;99.90;;;;;;5055720;28;20040;-82
2022/04/22 03:36:14;;;;;;;17.73;11.90;;;11.70;99.90;;;;;;5038439;28;20041;-81
2022/04/22 03:38:41;;;;;;;25.67;15.05;;;11.60;99.90;;;;;;5038018;28;20052;-82
2022/04/22 03:41:06;;;;;;;22.63;12.75;;;11.60;99.90;;;;;;5055972;28;20078;-81
2022/04/22 03:43:32;;;;;;;18.60;11.57;;;11.40;99.90;;;;;;5037227;28;20108;-81
2022/04/22 03:45:59;;;;;;;16.83;11.60;;;11.40;99.90;;;;;;5055920;28;20032;-82
2022/04/22 03:48:25;;;;;;;18.10;11.68;;;11.40;99.90;;;;;;5056135;28;20393;-82
2022/04/22 03:50:50;;;;;;;17.25;11.57;;;11.60;99.90;;;;;;5054405;28;20028;-82
2022/04/22 03:53:16;;;;;;;19.40;11.05;;;11.70;99.90;;;;;;5055570;28;20508;-80
2022/04/22 03:55:44;;;;;;;15.07;11.13;;;11.50;99.90;;;;;;5055407;28;20025;-81
2022/04/22 03:58:10;;;;;;;15.98;11.20;;;11.60;99.90;;;;;;5054056;28;20025;-82
2022/04/22 04:00:51;;;;;;;17.02;11.38;;;11.80;99.90;;;;;;5055631;28;20124;-82
2022/04/22 04:03:21;;;;;;;18.83;11.88;;;11.70;99.90;;;;;;5055558;28;20086;-83
2022/04/22 04:05:49;;;;;;;24.05;12.15;;;11.60;99.90;;;;;;5054991;28;20049;-84
2022/04/22 04:08:17;;;;;;;17.55;10.40;;;11.60;99.90;;;;;;5055528;28;20025;-83
2022/04/22 04:16:12;;;;;;;16.85;11.50;;;11.20;99.90;;;;;;5055022;28;20033;-82
2022/04/22 04:18:38;;;;;;;19.35;11.80;;;11.20;99.90;;;;;;5055254;28;20098;-82
2022/04/22 04:23:51;;;;;;;21.40;12.45;;;11.40;99.90;;;;;;5054917;28;20032;-81
2022/04/22 04:26:18;;;;;;;19.27;12.07;;;11.30;99.90;;;;;;5036706;28;20405;-82
2022/04/22 04:28:47;;;;;;;17.50;11.68;;;11.30;99.90;;;;;;5055123;28;20017;-83
2022/04/22 04:31:13;;;;;;;22.48;12.48;;;11.10;99.90;;;;;;5054897;28;20037;-82
2022/04/22 04:33:39;;;;;;;16.60;12.20;;;11.20;99.90;;;;;;5054655;28;20386;-81
2022/04/22 04:36:06;;;;;;;17.00;11.88;;;10.90;99.90;;;;;;5054600;28;20037;-81
2022/04/22 04:38:32;;;;;;;20.05;12.50;;;10.90;99.90;;;;;;5054821;28;20017;-79
2022/04/22 04:40:59;;;;;;;19.95;11.32;;;10.90;99.90;;;;;;5053620;28;20025;-83
2022/04/22 04:43:24;;;;;;;23.00;13.23;;;11.10;99.90;;;;;;5054557;28;20033;-82
2022/04/22 04:45:50;;;;;;;29.70;13.98;;;11.20;99.90;;;;;;5036770;28;20033;-83
2022/04/22 04:48:17;;;;;;;23.55;12.35;;;11.40;99.90;;;;;;5054706;28;20082;-83
2022/04/22 04:50:44;;;;;;;22.52;13.70;;;11.50;99.90;;;;;;5054586;28;20029;-83
2022/04/22 04:53:11;;;;;;;24.25;14.43;;;11.70;99.90;;;;;;5054398;28;20029;-83
2022/04/22 04:55:37;;;;;;;26.38;15.25;;;11.60;99.90;;;;;;5054171;28;20079;-79
2022/04/22 04:58:04;;;;;;;27.38;13.93;;;11.40;99.90;;;;;;5054455;28;20477;-83
2022/04/22 05:00:30;;;;;;;27.15;15.90;;;11.20;99.90;;;;;;5054378;28;20511;-82
2022/04/22 05:02:56;;;;;;;27.85;15.73;;;11.20;99.90;;;;;;5054132;28;20037;-83
2022/04/22 05:05:23;;;;;;;28.00;15.43;;;11.20;99.90;;;;;;5053678;28;20035;-82
2022/04/22 05:07:55;;;;;;;22.75;14.50;;;11.20;99.90;;;;;;5054209;28;20029;-82
2022/04/22 05:10:21;;;;;;;27.92;14.55;;;11.40;99.90;;;;;;5054020;28;20048;-81
2022/04/22 05:12:50;;;;;;;23.30;14.40;;;11.30;99.90;;;;;;5054037;28;20029;-81
2022/04/22 05:15:18;;;;;;;21.50;14.07;;;11.30;99.90;;;;;;5053969;28;20029;-79
2022/04/22 05:17:46;;;;;;;20.88;13.60;;;11.30;99.90;;;;;;5053925;28;20036;-82
2022/04/22 05:20:14;;;;;;;22.60;14.25;;;11.40;99.90;;;;;;5054059;28;20523;-81
2022/04/22 05:22:40;;;;;;;21.30;13.02;;;11.40;99.90;;;;;;5053871;28;20147;-83
2022/04/22 05:25:08;;;;;;;21.80;13.93;;;11.30;99.90;;;;;;5070364;28;20016;-83
2022/04/22 05:27:34;;;;;;;23.45;13.98;;;11.50;99.90;;;;;;5073981;28;20108;-83
2022/04/22 05:32:48;;;;;;;24.20;13.48;;;11.20;99.90;;;;;;5053776;28;20049;-82
2022/04/22 05:35:15;;;;;;;28.60;13.65;;;11.30;99.90;;;;;;5053469;28;20033;-82
2022/04/22 05:37:59;;;;;;;24.77;14.20;;;11.30;99.90;;;;;;5035604;28;20432;-82
2022/04/22 05:40:27;;;;;;;27.13;14.18;;;11.40;99.90;;;;;;5052369;28;20120;-82
2022/04/22 05:42:53;;;;;;;23.13;14.40;;;11.50;99.90;;;;;;5053377;28;20021;-80
2022/04/22 05:45:21;;;;;;;22.33;14.45;;;11.60;99.90;;;;;;5052337;28;20049;-82
2022/04/22 05:47:47;;;;;;;18.80;13.50;;;11.60;99.90;;;;;;5053136;28;20116;-78
2022/04/22 05:50:15;;;;;;;24.40;14.60;;;11.70;99.90;;;;;;5053349;28;20087;-78
2022/04/22 05:52:41;;;;;;;22.02;14.30;;;11.70;99.90;;;;;;5035059;28;20043;-76
2022/04/22 05:55:10;;;;;;;18.13;13.65;;;11.60;99.90;;;;;;5053561;28;20021;-76
2022/04/22 05:57:36;;;;;;;18.73;13.38;;;11.60;99.90;;;;;;5053172;28;20059;-75
2022/04/22 06:00:08;;;;;;;23.38;14.30;;;11.70;99.90;;;;;;5053868;28;20033;-79
2022/04/22 06:02:41;;;;;;;25.60;14.27;;;11.60;99.90;;;;;;5053700;28;20470;-79
2022/04/22 06:05:11;;;;;;;25.20;15.52;;;11.60;99.90;;;;;;5050911;28;20041;-83
2022/04/22 06:07:38;;;;;;;18.83;13.15;;;11.80;99.90;;;;;;5052639;28;20037;-76
2022/04/22 06:12:53;;;;;;;23.05;14.57;;;12.00;99.90;;;;;;5052482;28;20481;-77
2022/04/22 06:15:20;;;;;;;26.95;15.30;;;12.10;99.90;;;;;;5034518;28;20074;-79
2022/04/22 06:17:46;;;;;;;25.42;15.23;;;12.10;99.90;;;;;;5052517;28;20033;-80
2022/04/22 06:20:13;;;;;;;22.67;15.32;;;11.90;99.90;;;;;;5053145;28;20024;-77
2022/04/22 06:22:39;;;;;;;22.70;14.73;;;12.10;99.90;;;;;;5052690;28;20040;-78
2022/04/22 06:25:06;;;;;;;31.05;15.77;;;12.10;99.90;;;;;;5034826;28;20029;-82
2022/04/22 06:27:40;;;;;;;23.73;14.45;;;12.00;99.90;;;;;;5052500;28;20575;-81
2022/04/22 06:30:14;;;;;;;22.08;14.38;;;12.00;99.90;;;;;;5052489;28;20363;-82
2022/04/22 06:32:42;;;;;;;21.55;14.85;;;12.20;99.90;;;;;;5035336;28;20397;-82
2022/04/22 06:35:10;;;;;;;24.00;14.65;;;12.20;99.90;;;;;;5015373;28;20029;-82
2022/04/22 06:37:44;;;;;;;26.95;14.45;;;12.30;99.90;;;;;;5016183;28;20308;-80
2022/04/22 06:45:48;;;;;;;20.65;15.25;;;12.30;99.90;;;;;;5034718;28;20040;-85
2022/04/22 06:48:30;;;;;;;23.20;15.75;;;12.40;99.90;;;;;;5044275;28;20086;-81
2022/04/22 06:50:58;;;;;;;26.55;16.60;;;12.40;99.90;;;;;;5052100;28;20039;-80
2022/04/22 06:53:25;;;;;;;24.92;14.77;;;12.60;99.90;;;;;;5051862;28;20021;-81
2022/04/22 06:55:53;;;;;;;21.83;15.23;;;12.40;99.90;;;;;;5052565;28;20473;-81
2022/04/22 06:58:20;;;;;;;29.00;15.50;;;12.60;99.90;;;;;;5052293;28;20029;-81
2022/04/22 07:00:47;;;;;;;28.65;16.20;;;12.70;99.90;;;;;;5052674;28;20021;-81
2022/04/22 07:03:15;;;;;;;22.15;15.57;;;12.80;99.90;;;;;;5034533;28;20029;-81
2022/04/22 07:05:43;;;;;;;29.00;15.40;;;13.10;99.90;;;;;;5038189;28;20038;-81
2022/04/22 07:08:14;;;;;;;23.50;15.98;;;13.20;99.90;;;;;;5038495;28;20044;-81
2022/04/22 07:10:48;;;;;;;22.90;15.43;;;13.20;99.90;;;;;;5056205;28;20642;-81
2022/04/22 07:13:16;;;;;;;23.98;16.05;;;13.30;99.90;;;;;;5056087;28;20515;-80
2022/04/22 07:15:47;;;;;;;21.88;14.20;;;13.40;99.90;;;;;;5038563;28;20033;-82
2022/04/22 07:18:13;;;;;;;23.88;14.82;;;13.40;99.90;;;;;;5056146;28;20474;-81
2022/04/22 07:20:40;;;;;;;22.35;15.45;;;13.70;99.90;;;;;;5055764;28;20067;-81
2022/04/22 07:23:06;;;;;;;23.92;14.95;;;13.80;99.90;;;;;;5056164;28;20547;-79
2022/04/22 07:25:32;;;;;;;25.13;14.05;;;13.80;99.90;;;;;;5056144;28;20150;-81
2022/04/22 07:27:59;;;;;;;26.55;15.38;;;13.80;99.90;;;;;;5055997;28;20021;-81
2022/04/22 07:30:25;;;;;;;27.55;15.57;;;14.00;99.90;;;;;;5056006;28;20471;-81
2022/04/22 07:32:52;;;;;;;24.33;15.40;;;14.30;99.90;;;;;;5055782;28;20040;-81
2022/04/22 07:35:20;;;;;;;22.70;15.10;;;13.90;99.90;;;;;;5055445;28;20047;-82
2022/04/22 07:37:48;;;;;;;23.90;16.00;;;13.90;99.90;;;;;;5038065;28;20024;-80
2022/04/22 07:40:15;;;;;;;25.02;15.55;;;14.00;99.90;;;;;;5037931;28;20040;-81
2022/04/22 07:46:46;;;;;;;22.50;14.30;;;13.90;99.90;;;;;;5037954;28;20033;-81
2022/04/22 07:48:18;;;;;;;23.38;14.93;;;14.30;99.90;;;;;;5055702;28;20444;-81
2022/04/22 07:50:45;;;;;;;24.88;14.30;;;14.40;99.90;;;;;;5054143;28;20080;-81
2022/04/22 07:53:11;;;;;;;21.35;14.48;;;14.50;99.90;;;;;;5055414;28;20078;-81
2022/04/22 07:55:37;;;;;;;27.00;14.85;;;14.50;99.90;;;;;;5056044;28;20115;-83
2022/04/22 07:58:02;;;;;;;19.88;14.23;;;14.60;99.90;;;;;;5055607;28;20051;-78
2022/04/22 08:00:28;;;;;;;24.88;16.50;;;14.50;99.90;;;;;;5055492;28;20505;-79
2022/04/22 08:02:54;;;;;;;26.90;15.52;;;14.50;99.90;;;;;;5055188;28;20476;-77
2022/04/22 08:05:19;;;;;;;25.58;15.45;;;14.60;99.90;;;;;;5054796;28;20175;-78
2022/04/22 08:07:45;;;;;;;28.17;15.93;;;14.60;99.90;;;;;;5020864;28;20029;-77
2022/04/22 08:10:12;;;;;;;26.95;15.02;;;14.70;99.90;;;;;;5054936;28;20037;-78
2022/04/22 08:12:37;;;;;;;21.58;15.32;;;15.00;99.90;;;;;;5055198;28;20017;-79
2022/04/22 08:15:04;;;;;;;23.40;15.40;;;15.10;99.90;;;;;;5054129;28;20029;-78
2022/04/22 08:17:37;;;;;;;27.40;16.98;;;15.40;99.90;;;;;;5054488;28;20020;-79
2022/04/22 08:20:04;;;;;;;26.00;16.48;;;15.50;99.90;;;;;;5055004;28;20035;-78
2022/04/22 08:22:31;;;;;;;25.23;16.63;;;15.60;99.90;;;;;;5055035;28;20036;-78
2022/04/22 08:24:57;;;;;;;27.85;16.65;;;15.40;99.90;;;;;;5054791;28;20021;-76
2022/04/22 08:27:24;;;;;;;31.67;16.90;;;15.50;99.90;;;;;;5054732;28;20071;-76
2022/04/22 08:29:50;;;;;;;26.85;17.45;;;15.30;99.90;;;;;;5054842;28;20104;-77
2022/04/22 08:32:15;;;;;;;23.08;16.30;;;15.40;99.90;;;;;;5054565;28;20090;-78
2022/04/22 08:34:41;;;;;;;25.88;15.93;;;15.30;99.90;;;;;;5054659;28;20045;-75
2022/04/22 08:37:07;;;;;;;24.98;15.55;;;15.70;99.90;;;;;;5054576;28;20049;-76
2022/04/22 08:39:32;;;;;;;24.17;15.95;;;16.30;99.90;;;;;;5054767;28;20028;-75
2022/04/22 08:42:01;;;;;;;23.08;15.07;;;16.50;99.50;;;;;;5054882;28;20028;-73
2022/04/22 08:44:29;;;;;;;21.10;15.02;;;16.80;99.40;;;;;;5036931;28;20029;-74
2022/04/22 08:52:26;;;;;;;22.90;14.65;;;16.70;99.20;;;;;;5054453;28;20037;-72
2022/04/22 08:54:54;;;;;;;24.25;15.27;;;16.90;98.00;;;;;;5036580;28;20400;-73
2022/04/22 08:57:21;;;;;;;23.92;15.75;;;17.00;97.50;;;;;;5054208;28;20049;-73
2022/04/22 08:59:47;;;;;;;23.20;14.65;;;17.00;97.10;;;;;;5054299;28;20107;-73
2022/04/22 09:02:17;;;;;;;23.17;15.10;;;16.90;98.10;;;;;;5053540;28;20116;-72
2022/04/22 09:04:43;;;;;;;24.95;15.10;;;16.90;97.00;;;;;;5054272;28;20665;-73
2022/04/22 09:07:13;;;;;;;22.98;14.70;;;17.10;97.50;;;;;;5053978;28;20430;-73
2022/04/22 09:09:42;;;;;;;23.15;13.60;;;17.30;96.60;;;;;;5054161;28;20500;-73
2022/04/22 09:12:13;;;;;;;21.58;13.85;;;17.70;96.00;;;;;;5019762;28;20075;-73
2022/04/22 09:14:45;;;;;;;21.10;13.05;;;17.40;95.70;;;;;;5054041;28;20120;-73
2022/04/22 09:17:15;;;;;;;17.95;12.35;;;17.70;95.50;;;;;;5053728;28;20445;-73
2022/04/22 09:19:44;;;;;;;15.60;12.50;;;17.80;94.70;;;;;;5054077;28;20485;-73
2022/04/22 09:22:10;;;;;;;18.05;11.05;;;17.80;94.40;;;;;;5053767;28;20017;-84
2022/04/22 09:24:50;;;;;;;16.83;11.48;;;17.80;94.00;;;;;;5053742;28;20025;-74
2022/04/22 09:27:16;;;;;;;19.35;10.43;;;17.80;94.50;;;;;;5035655;28;20029;-74
2022/04/22 09:29:52;;;;;;;14.40;10.52;;;18.20;93.50;;;;;;5053860;28;20484;-74
2022/04/22 09:32:29;;;;;;;14.90;11.30;;;17.80;93.40;;;;;;5053453;28;20025;-74
2022/04/22 09:35:15;;;;;;;12.63;9.02;;;17.60;93.70;;;;;;5053431;28;20477;-80
2022/04/22 09:43:38;;;;;;;13.32;8.90;;;17.50;93.00;;;;;;5052070;28;20041;-84
2022/04/22 09:46:05;;;;;;;17.98;10.02;;;17.50;92.90;;;;;;5033170;28;20033;-84
2022/04/22 09:48:44;;;;;;;13.48;9.35;;;17.30;93.00;;;;;;5046683;28;20124;-85
2022/04/22 09:51:22;;;;;;;17.10;9.82;;;17.30;92.40;;;;;;5053555;28;20060;-82
2022/04/22 09:54:08;;;;;;;15.70;11.00;;;16.90;93.20;;;;;;5053350;28;20037;-81
2022/04/22 09:56:34;;;;;;;23.63;12.23;;;16.90;93.80;;;;;;5051886;28;20369;-81
2022/04/22 09:59:18;;;;;;;18.35;11.90;;;16.50;94.80;;;;;;5053033;28;20380;-80
2022/04/22 10:01:44;;;;;;;15.23;11.02;;;16.60;95.60;;;;;;5053574;28;20400;-81
2022/04/22 10:04:11;;;;;;;15.25;11.40;;;17.00;94.90;;;;;;5052872;28;20021;-79
2022/04/22 10:06:38;;;;;;;15.77;11.25;;;17.50;94.20;;;;;;5052927;28;20079;-82
2022/04/22 10:09:03;;;;;;;18.20;12.20;;;17.90;94.10;;;;;;5052907;28;20485;-81
2022/04/22 10:11:29;;;;;;;16.83;12.18;;;17.90;93.80;;;;;;5053347;28;20079;-81
2022/04/22 10:13:56;;;;;;;17.92;11.13;;;17.80;93.70;;;;;;5052613;28;20044;-81
2022/04/22 10:16:22;;;;;;;15.10;11.77;;;17.90;93.30;;;;;;5052935;28;20021;-81
2022/04/22 10:18:50;;;;;;;18.25;11.90;;;17.60;92.90;;;;;;5053332;28;20056;-81
2022/04/22 10:21:16;;;;;;;16.25;12.15;;;17.00;93.40;;;;;;5053080;28;20157;-81
2022/04/22 10:23:45;;;;;;;16.98;11.77;;;16.90;94.10;;;;;;5053024;28;20032;-81
2022/04/22 10:26:11;;;;;;;16.90;12.70;;;16.60;95.00;;;;;;5052829;28;20032;-81
2022/04/22 10:28:38;;;;;;;18.77;13.55;;;16.60;95.20;;;;;;5052590;28;20443;-82
2022/04/22 10:31:04;;;;;;;19.27;13.35;;;16.60;94.70;;;;;;5052631;28;20029;-81
2022/04/22 10:33:45;;;;;;;17.70;12.65;;;16.40;95.10;;;;;;5052650;28;20036;-81
2022/04/22 10:36:13;;;;;;;14.73;12.15;;;16.20;96.20;;;;;;5052959;28;20354;-81
2022/04/22 10:38:43;;;;;;;13.48;11.60;;;16.60;95.50;;;;;;5051919;28;20040;-81
2022/04/22 10:41:19;;;;;;;15.10;10.90;;;16.70;94.60;;;;;;5052621;28;20036;-81
2022/04/22 10:47:14;;;;;;;13.15;9.93;;;17.00;93.40;;;;;;5052770;28;20104;-81
2022/04/22 10:49:42;;;;;;;13.00;9.23;;;16.80;94.10;;;;;;5032378;28;20478;-82
2022/04/22 10:52:19;;;;;;;16.42;8.85;;;16.70;94.30;;;;;;5032779;28;20048;-80
2022/04/22 10:54:58;;;;;;;17.20;7.88;;;16.40;93.90;;;;;;5014760;28;20041;-80
2022/04/22 10:57:29;;;;;;;11.63;7.90;;;16.30;93.90;;;;;;5014497;28;20029;-80
2022/04/22 11:00:11;;;;;;;9.93;7.97;;;16.20;93.70;;;;;;5032345;28;20346;-81
2022/04/22 11:02:41;;;;;;;14.70;9.05;;;16.00;94.50;;;;;;5036989;28;20104;-81
2022/04/22 11:05:19;;;;;;;14.23;8.30;;;15.90;95.10;;;;;;5052018;28;20025;-81
2022/04/22 11:07:51;;;;;;;12.20;8.75;;;15.90;94.60;;;;;;5052520;28;20033;-81
2022/04/22 11:10:18;;;;;;;13.20;9.57;;;16.00;95.20;;;;;;5052401;28;20033;-81
2022/04/22 11:12:58;;;;;;;19.17;9.68;;;16.00;95.00;;;;;;5051957;28;20037;-81
2022/04/22 11:15:42;;;;;;;12.25;9.00;;;15.90;96.10;;;;;;5052303;28;20119;-80
2022/04/22 11:18:15;;;;;;;17.77;9.82;;;16.10;96.00;;;;;;5052183;28;20047;-79
2022/04/22 11:21:05;;;;;;;18.55;10.15;;;15.90;95.90;;;;;;5052373;28;20068;-82
2022/04/22 11:23:36;;;;;;;11.85;9.25;;;16.00;95.60;;;;;;5052174;28;20420;-80
2022/04/22 11:26:03;;;;;;;13.40;9.88;;;16.00;95.20;;;;;;5034088;28;20701;-80
2022/04/22 11:28:37;;;;;;;20.23;9.73;;;16.20;94.80;;;;;;5052265;28;20478;-80
2022/04/22 11:31:05;;;;;;;15.88;10.63;;;16.00;94.80;;;;;;5052107;28;20067;-80
2022/04/22 11:33:54;;;;;;;14.30;9.88;;;15.80;95.70;;;;;;5052290;28;20473;-80
2022/04/22 11:36:20;;;;;;;12.07;9.95;;;15.80;95.70;;;;;;5052539;28;20029;-80
2022/04/22 11:38:51;;;;;;;19.05;10.65;;;15.80;96.20;;;;;;5052128;28;20489;-80
2022/04/22 11:41:17;;;;;;;12.25;10.25;;;16.10;96.30;;;;;;5051783;28;20063;-79
2022/04/22 11:43:44;;;;;;;12.95;9.10;;;16.40;95.50;;;;;;5052202;28;20036;-81
2022/04/22 11:46:14;;;;;;;11.60;10.25;;;16.20;95.70;;;;;;5052046;28;20037;-79
2022/04/22 11:48:49;;;;;;;17.75;10.60;;;16.30;95.60;;;;;;5052552;28;20044;-80
2022/04/22 11:51:18;;;;;;;19.20;10.82;;;16.10;95.90;;;;;;5037029;28;20029;-80
2022/04/22 11:53:48;;;;;;;19.58;11.00;;;16.10;96.30;;;;;;5055550;28;20112;-80
2022/04/22 11:56:22;;;;;;;19.50;11.07;;;16.20;96.50;;;;;;5055128;28;20028;-80
2022/04/22 11:58:56;;;;;;;16.50;11.25;;;16.40;96.20;;;;;;5055505;28;20032;-81
2022/04/22 12:06:59;;;;;;;18.17;12.38;;;16.70;96.00;;;;;;5037026;28;20041;-80
2022/04/22 12:09:25;;;;;;;13.35;11.18;;;16.70;96.00;;;;;;5055209;28;20076;-79
2022/04/22 12:11:51;;;;;;;15.30;11.13;;;17.00;95.10;;;;;;5055126;28;20029;-80
2022/04/22 12:14:23;;;;;;;16.38;11.77;;;16.60;95.30;;;;;;5037170;28;20064;-80
2022/04/22 12:16:59;;;;;;;27.00;12.80;;;16.30;95.80;;;;;;5037350;28;20462;-80
2022/04/22 12:19:26;;;;;;;19.83;12.18;;;16.10;96.60;;;;;;5020652;28;20430;-80
2022/04/22 12:21:54;;;;;;;14.43;12.05;;;16.00;96.80;;;;;;5055346;28;20108;-81
2022/04/22 12:24:21;;;;;;;14.38;11.20;;;16.00;96.90;;;;;;5036691;28;20478;-80
2022/04/22 12:26:47;;;;;;;15.20;11.70;;;16.20;97.00;;;;;;5054939;28;20032;-80
2022/04/22 12:29:17;;;;;;;17.65;11.50;;;16.80;96.20;;;;;;5054872;28;20025;-80
2022/04/22 12:31:45;;;;;;;16.10;11.60;;;17.40;94.90;;;;;;5054833;28;20029;-80
2022/04/22 12:34:14;;;;;;;17.20;12.32;;;17.40;94.70;;;;;;5036811;28;20045;-80
2022/04/22 12:36:58;;;;;;;14.73;11.52;;;17.20;94.60;;;;;;5036716;28;20036;-80
2022/04/22 12:39:32;;;;;;;15.40;11.50;;;17.30;94.70;;;;;;5036838;28;20033;-80
2022/04/22 12:41:58;;;;;;;21.02;12.15;;;16.90;94.70;;;;;;5054650;28;20029;-80
2022/04/22 12:44:26;;;;;;;19.10;10.77;;;17.10;94.70;;;;;;5036687;28;20028;-79
2022/04/22 12:52:44;;;;;;;16.42;11.15;;;18.40;93.30;;;;;;5054344;28;20104;-80
2022/04/22 12:55:12;;;;;;;14.07;10.30;;;18.70;93.40;;;;;;5054244;28;20041;-80
2022/04/22 12:57:41;;;;;;;12.25;10.77;;;18.80;92.80;;;;;;5055129;28;20099;-81
2022/04/22 13:00:16;;;;;;;11.52;10.25;;;18.70;92.70;;;;;;5054586;28;20031;-79
2022/04/22 13:02:42;;;;;;;17.38;10.43;;;18.40;92.80;;;;;;5053388;28;20025;-80
2022/04/22 13:05:17;;;;;;;15.93;10.77;;;18.40;93.10;;;;;;5019681;28;20041;-80
2022/04/22 13:07:45;;;;;;;13.40;9.88;;;18.60;92.50;;;;;;5053935;28;20025;-81
2022/04/22 13:10:15;;;;;;;19.08;10.10;;;18.40;93.00;;;;;;5054238;28;20049;-81
2022/04/22 13:12:43;;;;;;;18.08;10.57;;;18.40;92.70;;;;;;5054061;28;20086;-81
2022/04/22 13:15:17;;;;;;;12.85;10.05;;;18.20;92.50;;;;;;5036037;28;20128;-80
2022/04/22 13:17:44;;;;;;;14.45;10.23;;;18.00;92.60;;;;;;5036335;28;20472;-80
2022/04/22 13:20:12;;;;;;;12.65;10.68;;;17.90;92.80;;;;;;5053960;28;20469;-81
2022/04/22 13:22:39;;;;;;;20.70;11.02;;;18.40;93.00;;;;;;5035790;28;20039;-81
2022/04/22 13:25:06;;;;;;;15.27;9.68;;;18.50;92.60;;;;;;5054002;28;20017;-81
2022/04/22 13:27:32;;;;;;;11.27;9.95;;;18.60;92.10;;;;;;5053652;28;20060;-81
2022/04/22 13:29:58;;;;;;;15.30;9.45;;;18.60;92.30;;;;;;5053801;28;20029;-81
2022/04/22 13:32:24;;;;;;;15.70;9.63;;;19.00;92.40;;;;;;5053831;28;20048;-82
2022/04/22 13:34:50;;;;;;;13.60;9.85;;;19.40;91.90;;;;;;5053549;28;20044;-81
2022/04/22 13:37:16;;;;;;;17.00;9.02;;;19.40;91.90;;;;;;5053110;28;20017;-80